sensor_id;sensor_type;location;lat;lon;timestamp;pressure;altitude;pressure_sealevel;temperature;humidity
64668;BME280;51077;42.716;23.344;2022-08-19T00:02:03;95096.88;;;24.91;43.30
64668;BME280;51077;42.716;23.344;2022-08-19T00:04:32;95103.81;;;24.90;43.47
64668;BME280;51077;42.716;23.344;2022-08-19T00:06:59;95107.16;;;24.86;43.60
64668;BME280;51077;42.716;23.344;2022-08-19T00:09:25;95095.66;;;24.82;43.66
64668;BME280;51077;42.716;23.344;2022-08-19T00:11:51;95101.16;;;24.80;43.77
64668;BME280;51077;42.716;23.344;2022-08-19T00:14:18;95105.19;;;24.77;43.78
64668;BME280;51077;42.716;23.344;2022-08-19T00:16:46;95096.66;;;24.75;43.94
64668;BME280;51077;42.716;23.344;2022-08-19T00:19:13;95109.09;;;24.72;43.74
64668;BME280;51077;42.716;23.344;2022-08-19T00:21:39;95108.97;;;24.70;43.90
64668;BME280;51077;42.716;23.344;2022-08-19T00:24:10;95108.84;;;24.68;43.85
64668;BME280;51077;42.716;23.344;2022-08-19T00:26:37;95107.28;;;24.65;43.85
64668;BME280;51077;42.716;23.344;2022-08-19T00:29:03;95110.69;;;24.63;43.98
64668;BME280;51077;42.716;23.344;2022-08-19T00:31:29;95121.06;;;24.61;43.82
64668;BME280;51077;42.716;23.344;2022-08-19T00:33:56;95113.25;;;24.59;44.06
64668;BME280;51077;42.716;23.344;2022-08-19T00:36:22;95112.41;;;24.56;44.12
64668;BME280;51077;42.716;23.344;2022-08-19T00:38:48;95106.56;;;24.52;43.89
64668;BME280;51077;42.716;23.344;2022-08-19T00:41:15;95105.69;;;24.50;44.25
64668;BME280;51077;42.716;23.344;2022-08-19T00:43:42;95098.50;;;24.47;44.22
64668;BME280;51077;42.716;23.344;2022-08-19T00:46:08;95101.91;;;24.45;44.14
64668;BME280;51077;42.716;23.344;2022-08-19T00:48:34;95096.66;;;24.40;44.19
64668;BME280;51077;42.716;23.344;2022-08-19T00:51:01;95099.34;;;24.38;44.28
64668;BME280;51077;42.716;23.344;2022-08-19T00:53:29;95095.53;;;24.33;44.35
64668;BME280;51077;42.716;23.344;2022-08-19T00:55:58;95103.09;;;24.30;44.38
64668;BME280;51077;42.716;23.344;2022-08-19T00:58:28;95100.06;;;24.26;44.43
64668;BME280;51077;42.716;23.344;2022-08-19T01:00:54;95096.38;;;24.24;44.49
64668;BME280;51077;42.716;23.344;2022-08-19T01:03:21;95101.16;;;24.21;44.50
64668;BME280;51077;42.716;23.344;2022-08-19T01:05:48;95109.31;;;24.17;44.55
64668;BME280;51077;42.716;23.344;2022-08-19T01:08:15;95106.38;;;24.15;44.64
64668;BME280;51077;42.716;23.344;2022-08-19T01:10:50;95111.72;;;24.11;44.99
64668;BME280;51077;42.716;23.344;2022-08-19T01:13:20;95106.63;;;24.07;44.83
64668;BME280;51077;42.716;23.344;2022-08-19T01:15:51;95117.69;;;24.05;44.92
64668;BME280;51077;42.716;23.344;2022-08-19T01:18:19;95112.56;;;24.02;45.21
64668;BME280;51077;42.716;23.344;2022-08-19T01:20:46;95115.84;;;23.98;45.23
64668;BME280;51077;42.716;23.344;2022-08-19T01:23:13;95105.13;;;23.95;45.30
64668;BME280;51077;42.716;23.344;2022-08-19T01:25:44;95108.53;;;23.93;45.24
64668;BME280;51077;42.716;23.344;2022-08-19T01:28:22;95099.13;;;23.89;45.50
64668;BME280;51077;42.716;23.344;2022-08-19T01:30:48;95104.63;;;23.87;45.71
64668;BME280;51077;42.716;23.344;2022-08-19T01:33:14;95107.91;;;23.83;45.65
64668;BME280;51077;42.716;23.344;2022-08-19T01:35:41;95104.13;;;23.78;45.97
64668;BME280;51077;42.716;23.344;2022-08-19T01:38:16;95098.13;;;23.72;46.07
64668;BME280;51077;42.716;23.344;2022-08-19T01:40:43;95088.59;;;23.66;46.10
64668;BME280;51077;42.716;23.344;2022-08-19T01:43:09;95101.47;;;23.59;46.34
64668;BME280;51077;42.716;23.344;2022-08-19T01:45:35;95096.94;;;23.54;46.33
64668;BME280;51077;42.716;23.344;2022-08-19T01:48:00;95100.81;;;23.49;46.70
64668;BME280;51077;42.716;23.344;2022-08-19T01:50:26;95104.81;;;23.46;47.02
64668;BME280;51077;42.716;23.344;2022-08-19T01:52:52;95111.66;;;23.43;47.08
64668;BME280;51077;42.716;23.344;2022-08-19T01:55:20;95106.06;;;23.43;47.24
64668;BME280;51077;42.716;23.344;2022-08-19T01:57:50;95107.25;;;23.40;47.08
64668;BME280;51077;42.716;23.344;2022-08-19T02:00:20;95107.09;;;23.38;47.40
64668;BME280;51077;42.716;23.344;2022-08-19T02:02:46;95105.63;;;23.37;47.31
64668;BME280;51077;42.716;23.344;2022-08-19T02:05:12;95112.59;;;23.36;47.40
64668;BME280;51077;42.716;23.344;2022-08-19T02:07:40;95112.47;;;23.33;47.65
64668;BME280;51077;42.716;23.344;2022-08-19T02:10:10;95112.31;;;23.31;47.60
64668;BME280;51077;42.716;23.344;2022-08-19T02:12:36;95115.13;;;23.31;47.62
64668;BME280;51077;42.716;23.344;2022-08-19T02:15:02;95112.19;;;23.29;47.75
64668;BME280;51077;42.716;23.344;2022-08-19T02:17:29;95121.19;;;23.28;47.63
64668;BME280;51077;42.716;23.344;2022-08-19T02:19:55;95112.66;;;23.26;47.62
64668;BME280;51077;42.716;23.344;2022-08-19T02:22:22;95116.06;;;23.24;47.88
64668;BME280;51077;42.716;23.344;2022-08-19T02:24:48;95114.47;;;23.21;47.85
64668;BME280;51077;42.716;23.344;2022-08-19T02:27:14;95111.66;;;23.21;47.85
64668;BME280;51077;42.716;23.344;2022-08-19T02:29:39;95104.59;;;23.20;48.15
64668;BME280;51077;42.716;23.344;2022-08-19T02:32:06;95110.06;;;23.18;48.27
64668;BME280;51077;42.716;23.344;2022-08-19T02:34:34;95110.53;;;23.15;48.35
64668;BME280;51077;42.716;23.344;2022-08-19T02:37:00;95116.00;;;23.13;48.45
64668;BME280;51077;42.716;23.344;2022-08-19T02:39:25;95114.41;;;23.10;48.46
64668;BME280;51077;42.716;23.344;2022-08-19T02:41:51;95115.75;;;23.08;48.51
64668;BME280;51077;42.716;23.344;2022-08-19T02:44:17;95117.81;;;23.08;48.54
64668;BME280;51077;42.716;23.344;2022-08-19T02:46:47;95115.47;;;23.04;48.70
64668;BME280;51077;42.716;23.344;2022-08-19T02:49:13;95116.06;;;23.03;48.76
64668;BME280;51077;42.716;23.344;2022-08-19T02:51:42;95118.00;;;23.00;48.57
64668;BME280;51077;42.716;23.344;2022-08-19T02:54:10;95115.06;;;22.98;48.85
64668;BME280;51077;42.716;23.344;2022-08-19T02:56:38;95117.72;;;22.96;49.16
64668;BME280;51077;42.716;23.344;2022-08-19T02:59:04;95118.19;;;22.93;49.01
64668;BME280;51077;42.716;23.344;2022-08-19T03:01:34;95123.06;;;22.92;49.23
64668;BME280;51077;42.716;23.344;2022-08-19T03:04:01;95127.03;;;22.89;49.24
64668;BME280;51077;42.716;23.344;2022-08-19T03:06:28;95128.38;;;22.88;49.42
64668;BME280;51077;42.716;23.344;2022-08-19T03:08:54;95122.63;;;22.86;49.53
64668;BME280;51077;42.716;23.344;2022-08-19T03:11:29;95116.16;;;22.83;49.35
64668;BME280;51077;42.716;23.344;2022-08-19T03:13:56;95120.88;;;22.81;49.48
64668;BME280;51077;42.716;23.344;2022-08-19T03:16:25;95124.91;;;22.78;49.77
64668;BME280;51077;42.716;23.344;2022-08-19T03:18:52;95113.56;;;22.76;49.72
64668;BME280;51077;42.716;23.344;2022-08-19T03:21:24;95123.88;;;22.73;49.68
64668;BME280;51077;42.716;23.344;2022-08-19T03:23:53;95118.03;;;22.69;49.80
64668;BME280;51077;42.716;23.344;2022-08-19T03:26:19;95117.75;;;22.65;49.93
64668;BME280;51077;42.716;23.344;2022-08-19T03:28:45;95119.66;;;22.63;50.05
64668;BME280;51077;42.716;23.344;2022-08-19T03:31:16;95117.94;;;22.57;50.19
64668;BME280;51077;42.716;23.344;2022-08-19T03:33:42;95124.59;;;22.52;50.41
64668;BME280;51077;42.716;23.344;2022-08-19T03:36:11;95126.66;;;22.52;50.47
64668;BME280;51077;42.716;23.344;2022-08-19T03:38:40;95133.44;;;22.49;50.69
64668;BME280;51077;42.716;23.344;2022-08-19T03:41:14;95124.91;;;22.47;50.62
64668;BME280;51077;42.716;23.344;2022-08-19T03:43:41;95132.41;;;22.44;50.97
64668;BME280;51077;42.716;23.344;2022-08-19T03:46:12;95134.47;;;22.44;50.64
64668;BME280;51077;42.716;23.344;2022-08-19T03:48:39;95146.28;;;22.42;50.79
64668;BME280;51077;42.716;23.344;2022-08-19T03:51:06;95139.34;;;22.43;50.96
64668;BME280;51077;42.716;23.344;2022-08-19T03:53:34;95146.41;;;22.44;50.83
64668;BME280;51077;42.716;23.344;2022-08-19T03:56:00;95148.59;;;22.46;50.97
64668;BME280;51077;42.716;23.344;2022-08-19T03:58:27;95150.66;;;22.45;50.72
64668;BME280;51077;42.716;23.344;2022-08-19T04:00:57;95159.19;;;22.47;50.71
64668;BME280;51077;42.716;23.344;2022-08-19T04:03:24;95155.06;;;22.48;50.73
64668;BME280;51077;42.716;23.344;2022-08-19T04:05:50;95160.78;;;22.50;50.73
64668;BME280;51077;42.716;23.344;2022-08-19T04:08:15;95159.59;;;22.53;50.47
64668;BME280;51077;42.716;23.344;2022-08-19T04:10:44;95161.06;;;22.54;50.84
64668;BME280;51077;42.716;23.344;2022-08-19T04:13:10;95162.69;;;22.57;50.55
64668;BME280;51077;42.716;23.344;2022-08-19T04:15:40;95153.84;;;22.61;50.60
64668;BME280;51077;42.716;23.344;2022-08-19T04:18:08;95157.50;;;22.64;50.30
64668;BME280;51077;42.716;23.344;2022-08-19T04:20:44;95165.59;;;22.69;50.64
64668;BME280;51077;42.716;23.344;2022-08-19T04:23:12;95165.97;;;22.75;50.24
64668;BME280;51077;42.716;23.344;2022-08-19T04:25:43;95159.19;;;22.78;50.49
64668;BME280;51077;42.716;23.344;2022-08-19T04:28:11;95177.00;;;22.83;50.30
64668;BME280;51077;42.716;23.344;2022-08-19T04:30:43;95169.00;;;22.89;49.93
64668;BME280;51077;42.716;23.344;2022-08-19T04:33:10;95171.53;;;22.95;49.99
64668;BME280;51077;42.716;23.344;2022-08-19T04:35:42;95174.72;;;23.01;49.75
64668;BME280;51077;42.716;23.344;2022-08-19T04:38:09;95174.53;;;23.08;49.76
64668;BME280;51077;42.716;23.344;2022-08-19T04:40:43;95179.19;;;23.16;49.75
64668;BME280;51077;42.716;23.344;2022-08-19T04:43:27;95167.78;;;23.23;49.45
64668;BME280;51077;42.716;23.344;2022-08-19T04:45:53;95170.53;;;23.33;49.20
64668;BME280;51077;42.716;23.344;2022-08-19T04:48:19;95164.38;;;23.46;48.98
64668;BME280;51077;42.716;23.344;2022-08-19T04:50:54;95171.47;;;23.69;48.32
64668;BME280;51077;42.716;23.344;2022-08-19T04:53:30;95175.81;;;23.93;47.84
64668;BME280;51077;42.716;23.344;2022-08-19T04:55:57;95174.28;;;24.14;47.44
64668;BME280;51077;42.716;23.344;2022-08-19T04:58:25;95175.31;;;24.30;46.90
64668;BME280;51077;42.716;23.344;2022-08-19T05:00:51;95175.00;;;24.47;46.68
64668;BME280;51077;42.716;23.344;2022-08-19T05:03:17;95180.00;;;24.61;46.18
64668;BME280;51077;42.716;23.344;2022-08-19T05:05:45;95172.81;;;24.69;46.07
64668;BME280;51077;42.716;23.344;2022-08-19T05:08:14;95181.09;;;24.79;45.82
64668;BME280;51077;42.716;23.344;2022-08-19T05:10:43;95179.75;;;24.80;45.96
64668;BME280;51077;42.716;23.344;2022-08-19T05:13:09;95176.84;;;24.78;45.91
64668;BME280;51077;42.716;23.344;2022-08-19T05:15:35;95181.72;;;24.66;46.00
64668;BME280;51077;42.716;23.344;2022-08-19T05:18:01;95173.66;;;24.60;46.44
64668;BME280;51077;42.716;23.344;2022-08-19T05:20:45;95180.59;;;24.59;46.29
64668;BME280;51077;42.716;23.344;2022-08-19T05:23:29;95182.09;;;24.60;46.44
64668;BME280;51077;42.716;23.344;2022-08-19T05:25:55;95182.91;;;24.63;46.51
64668;BME280;51077;42.716;23.344;2022-08-19T05:28:21;95186.84;;;24.69;46.72
64668;BME280;51077;42.716;23.344;2022-08-19T05:30:47;95182.94;;;24.74;46.35
64668;BME280;51077;42.716;23.344;2022-08-19T05:33:13;95184.78;;;24.81;46.48
64668;BME280;51077;42.716;23.344;2022-08-19T05:35:39;95181.09;;;24.91;46.39
64668;BME280;51077;42.716;23.344;2022-08-19T05:38:07;95178.53;;;24.95;46.17
64668;BME280;51077;42.716;23.344;2022-08-19T05:40:37;95189.63;;;25.04;46.02
64668;BME280;51077;42.716;23.344;2022-08-19T05:43:07;95187.19;;;25.11;46.18
64668;BME280;51077;42.716;23.344;2022-08-19T05:45:38;95180.00;;;25.19;45.97
64668;BME280;51077;42.716;23.344;2022-08-19T05:48:03;95185.47;;;25.29;45.89
64668;BME280;51077;42.716;23.344;2022-08-19T05:50:29;95183.03;;;25.35;45.63
64668;BME280;51077;42.716;23.344;2022-08-19T05:52:55;95180.78;;;25.45;45.42
64668;BME280;51077;42.716;23.344;2022-08-19T05:55:20;95183.34;;;25.53;45.33
64668;BME280;51077;42.716;23.344;2022-08-19T05:57:47;95182.34;;;25.60;45.22
64668;BME280;51077;42.716;23.344;2022-08-19T06:00:13;95178.03;;;25.71;45.07
64668;BME280;51077;42.716;23.344;2022-08-19T06:02:39;95181.53;;;25.83;44.88
64668;BME280;51077;42.716;23.344;2022-08-19T06:05:06;95178.56;;;25.93;44.55
64668;BME280;51077;42.716;23.344;2022-08-19T06:07:35;95186.97;;;26.04;44.07
64668;BME280;51077;42.716;23.344;2022-08-19T06:10:01;95183.13;;;26.12;44.04
64668;BME280;51077;42.716;23.344;2022-08-19T06:12:28;95186.59;;;26.24;44.19
64668;BME280;51077;42.716;23.344;2022-08-19T06:14:56;95186.53;;;26.36;43.95
64668;BME280;51077;42.716;23.344;2022-08-19T06:17:22;95184.28;;;26.46;43.27
64668;BME280;51077;42.716;23.344;2022-08-19T06:19:51;95184.94;;;26.58;43.06
64668;BME280;51077;42.716;23.344;2022-08-19T06:22:16;95189.22;;;26.73;42.91
64668;BME280;51077;42.716;23.344;2022-08-19T06:24:42;95182.06;;;26.84;42.33
64668;BME280;51077;42.716;23.344;2022-08-19T06:27:07;95184.25;;;26.99;42.30
64668;BME280;51077;42.716;23.344;2022-08-19T06:29:33;95187.19;;;27.15;42.17
64668;BME280;51077;42.716;23.344;2022-08-19T06:32:01;95194.41;;;27.31;41.63
64668;BME280;51077;42.716;23.344;2022-08-19T06:34:29;95183.84;;;27.46;41.41
64668;BME280;51077;42.716;23.344;2022-08-19T06:36:56;95186.63;;;27.60;40.92
64668;BME280;51077;42.716;23.344;2022-08-19T06:39:25;95188.09;;;27.74;40.51
64668;BME280;51077;42.716;23.344;2022-08-19T06:41:53;95200.97;;;27.93;40.56
64668;BME280;51077;42.716;23.344;2022-08-19T06:44:22;95189.75;;;28.09;39.90
64668;BME280;51077;42.716;23.344;2022-08-19T06:46:48;95191.97;;;28.26;39.56
64668;BME280;51077;42.716;23.344;2022-08-19T06:49:17;95187.94;;;28.45;39.43
64668;BME280;51077;42.716;23.344;2022-08-19T06:51:44;95192.31;;;28.64;38.92
64668;BME280;51077;42.716;23.344;2022-08-19T06:54:13;95190.31;;;28.83;38.74
64668;BME280;51077;42.716;23.344;2022-08-19T06:56:39;95193.97;;;29.01;38.40
64668;BME280;51077;42.716;23.344;2022-08-19T06:59:10;95188.47;;;29.21;38.08
64668;BME280;51077;42.716;23.344;2022-08-19T07:01:38;95189.28;;;29.39;37.88
64668;BME280;51077;42.716;23.344;2022-08-19T07:04:06;95194.34;;;29.59;37.40
64668;BME280;51077;42.716;23.344;2022-08-19T07:06:32;95196.56;;;29.78;37.17
64668;BME280;51077;42.716;23.344;2022-08-19T07:08:58;95196.56;;;29.96;36.76
64668;BME280;51077;42.716;23.344;2022-08-19T07:11:23;95192.47;;;30.17;36.56
64668;BME280;51077;42.716;23.344;2022-08-19T07:13:49;95201.69;;;30.35;35.94
64668;BME280;51077;42.716;23.344;2022-08-19T07:16:18;95197.38;;;30.52;35.64
64668;BME280;51077;42.716;23.344;2022-08-19T07:18:48;95191.59;;;30.68;35.33
64668;BME280;51077;42.716;23.344;2022-08-19T07:21:19;95200.78;;;30.86;34.75
64668;BME280;51077;42.716;23.344;2022-08-19T07:23:47;95188.75;;;31.06;34.38
64668;BME280;51077;42.716;23.344;2022-08-19T07:26:19;95188.72;;;31.25;34.00
64668;BME280;51077;42.716;23.344;2022-08-19T07:28:46;95183.59;;;31.40;34.21
64668;BME280;51077;42.716;23.344;2022-08-19T07:31:18;95186.25;;;31.56;33.61
64668;BME280;51077;42.716;23.344;2022-08-19T07:33:45;95188.09;;;31.69;33.75
64668;BME280;51077;42.716;23.344;2022-08-19T07:36:12;95192.19;;;31.84;33.12
64668;BME280;51077;42.716;23.344;2022-08-19T07:38:40;95185.44;;;31.95;33.00
64668;BME280;51077;42.716;23.344;2022-08-19T07:41:09;95185.66;;;32.01;32.77
64668;BME280;51077;42.716;23.344;2022-08-19T07:43:35;95186.63;;;32.10;32.56
64668;BME280;51077;42.716;23.344;2022-08-19T07:46:00;95186.34;;;32.23;32.84
64668;BME280;51077;42.716;23.344;2022-08-19T07:48:27;95180.53;;;32.41;32.39
64668;BME280;51077;42.716;23.344;2022-08-19T07:50:58;95179.69;;;32.61;31.86
64668;BME280;51077;42.716;23.344;2022-08-19T07:53:28;95184.44;;;32.78;31.81
64668;BME280;51077;42.716;23.344;2022-08-19T07:55:54;95189.19;;;32.93;31.19
64668;BME280;51077;42.716;23.344;2022-08-19T07:58:21;95185.47;;;33.13;31.10
64668;BME280;51077;42.716;23.344;2022-08-19T08:00:49;95185.19;;;33.28;31.02
64668;BME280;51077;42.716;23.344;2022-08-19T08:03:18;95184.13;;;33.42;30.82
64668;BME280;51077;42.716;23.344;2022-08-19T08:05:44;95180.41;;;33.61;30.52
64668;BME280;51077;42.716;23.344;2022-08-19T08:08:28;95179.41;;;33.79;30.25
64668;BME280;51077;42.716;23.344;2022-08-19T08:11:14;95182.75;;;33.99;29.86
64668;BME280;51077;42.716;23.344;2022-08-19T08:13:39;95188.94;;;34.19;29.30
64668;BME280;51077;42.716;23.344;2022-08-19T08:16:06;95182.22;;;34.37;29.39
64668;BME280;51077;42.716;23.344;2022-08-19T08:18:32;95171.91;;;34.51;29.01
64668;BME280;51077;42.716;23.344;2022-08-19T08:20:58;95170.91;;;34.71;29.16
64668;BME280;51077;42.716;23.344;2022-08-19T08:23:25;95162.66;;;34.87;28.27
64668;BME280;51077;42.716;23.344;2022-08-19T08:25:53;95164.94;;;34.93;28.11
64668;BME280;51077;42.716;23.344;2022-08-19T08:28:20;95160.97;;;35.08;28.23
64668;BME280;51077;42.716;23.344;2022-08-19T08:30:47;95164.91;;;35.27;27.94
64668;BME280;51077;42.716;23.344;2022-08-19T08:33:14;95158.09;;;35.44;27.35
64668;BME280;51077;42.716;23.344;2022-08-19T08:35:42;95166.78;;;35.50;27.37
64668;BME280;51077;42.716;23.344;2022-08-19T08:38:07;95157.81;;;35.68;27.22
64668;BME280;51077;42.716;23.344;2022-08-19T08:43:50;95154.53;;;35.84;26.22
64668;BME280;51077;42.716;23.344;2022-08-19T08:51:50;95143.56;;;36.11;25.52
64668;BME280;51077;42.716;23.344;2022-08-19T08:54:20;95139.47;;;36.24;25.64
64668;BME280;51077;42.716;23.344;2022-08-19T08:56:49;95137.50;;;36.39;25.29
64668;BME280;51077;42.716;23.344;2022-08-19T08:59:30;95140.03;;;36.65;25.00
64668;BME280;51077;42.716;23.344;2022-08-19T09:02:00;95134.63;;;36.89;25.26
64668;BME280;51077;42.716;23.344;2022-08-19T09:04:26;95132.03;;;37.10;24.93
64668;BME280;51077;42.716;23.344;2022-08-19T09:06:57;95130.13;;;37.33;24.22
64668;BME280;51077;42.716;23.344;2022-08-19T09:09:32;95128.22;;;37.56;23.87
64668;BME280;51077;42.716;23.344;2022-08-19T09:12:18;95122.00;;;37.80;23.55
64668;BME280;51077;42.716;23.344;2022-08-19T09:14:50;95124.31;;;38.00;23.95
64668;BME280;51077;42.716;23.344;2022-08-19T09:17:21;95124.44;;;38.16;23.09
64668;BME280;51077;42.716;23.344;2022-08-19T09:20:00;95117.38;;;38.31;23.29
64668;BME280;51077;42.716;23.344;2022-08-19T09:22:31;95118.94;;;38.51;23.10
64668;BME280;51077;42.716;23.344;2022-08-19T09:24:57;95108.28;;;38.69;22.29
64668;BME280;51077;42.716;23.344;2022-08-19T09:27:23;95104.06;;;38.87;22.03
64668;BME280;51077;42.716;23.344;2022-08-19T09:29:50;95106.25;;;38.94;21.91
64668;BME280;51077;42.716;23.344;2022-08-19T09:32:16;95105.59;;;39.12;21.48
64668;BME280;51077;42.716;23.344;2022-08-19T09:34:43;95099.16;;;39.20;21.97
64668;BME280;51077;42.716;23.344;2022-08-19T09:37:09;95099.94;;;39.37;21.32
64668;BME280;51077;42.716;23.344;2022-08-19T09:39:35;95093.47;;;39.53;21.02
64668;BME280;51077;42.716;23.344;2022-08-19T09:42:00;95090.66;;;39.67;20.73
64668;BME280;51077;42.716;23.344;2022-08-19T09:44:26;95089.91;;;39.87;20.93
64668;BME280;51077;42.716;23.344;2022-08-19T09:46:51;95088.47;;;39.92;20.09
64668;BME280;51077;42.716;23.344;2022-08-19T09:49:18;95094.22;;;40.00;20.36
64668;BME280;51077;42.716;23.344;2022-08-19T09:51:45;95089.16;;;40.27;19.71
64668;BME280;51077;42.716;23.344;2022-08-19T09:54:14;95088.41;;;40.39;19.13
64668;BME280;51077;42.716;23.344;2022-08-19T09:56:39;95083.34;;;40.64;19.21
64668;BME280;51077;42.716;23.344;2022-08-19T09:59:05;95077.59;;;40.58;18.87
64668;BME280;51077;42.716;23.344;2022-08-19T10:01:31;95081.94;;;40.38;18.38
64668;BME280;51077;42.716;23.344;2022-08-19T10:03:58;95075.47;;;40.40;18.19
64668;BME280;51077;42.716;23.344;2022-08-19T10:06:26;95065.38;;;40.53;18.32
64668;BME280;51077;42.716;23.344;2022-08-19T10:08:55;95063.25;;;40.54;18.43
64668;BME280;51077;42.716;23.344;2022-08-19T10:11:21;95067.53;;;40.61;18.30
64668;BME280;51077;42.716;23.344;2022-08-19T10:13:47;95056.63;;;40.82;18.51
64668;BME280;51077;42.716;23.344;2022-08-19T10:16:16;95050.13;;;40.87;18.11
64668;BME280;51077;42.716;23.344;2022-08-19T10:18:43;95055.06;;;41.09;17.58
64668;BME280;51077;42.716;23.344;2022-08-19T10:21:17;95060.88;;;41.03;17.51
64668;BME280;51077;42.716;23.344;2022-08-19T10:23:45;95055.88;;;40.93;17.84
64668;BME280;51077;42.716;23.344;2022-08-19T10:26:15;95047.91;;;41.04;17.79
64668;BME280;51077;42.716;23.344;2022-08-19T10:28:41;95054.97;;;41.26;17.49
64668;BME280;51077;42.716;23.344;2022-08-19T10:31:11;95047.00;;;41.38;17.93
64668;BME280;51077;42.716;23.344;2022-08-19T10:33:38;95049.75;;;41.53;17.67
64668;BME280;51077;42.716;23.344;2022-08-19T10:36:08;95036.56;;;41.78;17.24
64668;BME280;51077;42.716;23.344;2022-08-19T10:38:35;95042.06;;;42.09;17.42
64668;BME280;51077;42.716;23.344;2022-08-19T10:41:12;95033.28;;;42.23;17.59
64668;BME280;51077;42.716;23.344;2022-08-19T10:43:39;95037.63;;;42.22;17.05
64668;BME280;51077;42.716;23.344;2022-08-19T10:46:07;95038.91;;;42.37;17.42
64668;BME280;51077;42.716;23.344;2022-08-19T10:48:33;95031.03;;;42.32;16.97
64668;BME280;51077;42.716;23.344;2022-08-19T10:50:59;95035.94;;;42.43;17.29
64668;BME280;51077;42.716;23.344;2022-08-19T10:54:00;95033.56;;;42.64;17.02
64668;BME280;51077;42.716;23.344;2022-08-19T10:56:27;95028.19;;;42.89;17.03
64668;BME280;51077;42.716;23.344;2022-08-19T10:59:11;95019.59;;;42.83;16.63
64668;BME280;51077;42.716;23.344;2022-08-19T11:01:39;95024.09;;;42.70;16.76
64668;BME280;51077;42.716;23.344;2022-08-19T11:04:05;95025.84;;;43.00;16.70
64668;BME280;51077;42.716;23.344;2022-08-19T11:06:33;95029.50;;;42.99;16.11
64668;BME280;51077;42.716;23.344;2022-08-19T11:08:59;95020.19;;;42.94;16.10
64668;BME280;51077;42.716;23.344;2022-08-19T11:11:25;95012.94;;;42.95;16.25
64668;BME280;51077;42.716;23.344;2022-08-19T11:13:51;95020.84;;;42.99;16.60
64668;BME280;51077;42.716;23.344;2022-08-19T11:16:22;95016.41;;;43.08;16.25
64668;BME280;51077;42.716;23.344;2022-08-19T11:18:54;95021.72;;;43.38;16.01
64668;BME280;51077;42.716;23.344;2022-08-19T11:21:31;95018.19;;;43.32;16.29
64668;BME280;51077;42.716;23.344;2022-08-19T11:24:01;95010.75;;;43.47;16.11
64668;BME280;51077;42.716;23.344;2022-08-19T11:26:27;95011.94;;;43.62;16.00
64668;BME280;51077;42.716;23.344;2022-08-19T11:28:55;95006.25;;;43.58;15.97
64668;BME280;51077;42.716;23.344;2022-08-19T11:31:24;95003.19;;;43.69;15.71
64668;BME280;51077;42.716;23.344;2022-08-19T11:33:50;95007.59;;;43.63;16.13
64668;BME280;51077;42.716;23.344;2022-08-19T11:36:18;94993.94;;;43.60;16.15
64668;BME280;51077;42.716;23.344;2022-08-19T11:38:45;94997.47;;;43.64;15.96
64668;BME280;51077;42.716;23.344;2022-08-19T11:41:12;94991.97;;;43.48;15.69
64668;BME280;51077;42.716;23.344;2022-08-19T11:43:37;94995.19;;;43.26;15.72
64668;BME280;51077;42.716;23.344;2022-08-19T11:46:06;94990.31;;;43.14;15.85
64668;BME280;51077;42.716;23.344;2022-08-19T11:48:33;94987.59;;;43.02;15.80
64668;BME280;51077;42.716;23.344;2022-08-19T11:51:04;94981.63;;;43.14;15.93
64668;BME280;51077;42.716;23.344;2022-08-19T11:53:31;94978.75;;;43.14;15.71
64668;BME280;51077;42.716;23.344;2022-08-19T11:55:57;94973.03;;;43.12;16.02
64668;BME280;51077;42.716;23.344;2022-08-19T11:58:23;94980.25;;;43.11;15.73
64668;BME280;51077;42.716;23.344;2022-08-19T12:00:50;94971.25;;;41.52;19.26
64668;BME280;51077;42.716;23.344;2022-08-19T12:03:15;94966.34;;;39.89;20.48
64668;BME280;51077;42.716;23.344;2022-08-19T12:05:41;94965.69;;;39.54;20.48
64668;BME280;51077;42.716;23.344;2022-08-19T12:08:07;94962.69;;;40.21;18.77
64668;BME280;51077;42.716;23.344;2022-08-19T12:10:34;94955.16;;;40.87;18.30
64668;BME280;51077;42.716;23.344;2022-08-19T12:13:00;94945.59;;;41.17;17.67
64668;BME280;51077;42.716;23.344;2022-08-19T12:15:26;94949.00;;;41.47;17.26
64668;BME280;51077;42.716;23.344;2022-08-19T12:17:54;94944.88;;;41.99;17.15
64668;BME280;51077;42.716;23.344;2022-08-19T12:20:22;94951.19;;;42.14;16.40
64668;BME280;51077;42.716;23.344;2022-08-19T12:22:47;94947.66;;;42.05;16.81
64668;BME280;51077;42.716;23.344;2022-08-19T12:25:14;94941.31;;;41.95;17.08
64668;BME280;51077;42.716;23.344;2022-08-19T12:27:39;94930.38;;;42.05;16.80
64668;BME280;51077;42.716;23.344;2022-08-19T12:30:07;94925.88;;;42.18;16.61
64668;BME280;51077;42.716;23.344;2022-08-19T12:32:33;94932.06;;;42.46;16.17
64668;BME280;51077;42.716;23.344;2022-08-19T12:34:59;94931.47;;;42.35;16.60
64668;BME280;51077;42.716;23.344;2022-08-19T12:37:24;94930.06;;;42.34;16.55
64668;BME280;51077;42.716;23.344;2022-08-19T12:39:50;94931.44;;;42.39;16.05
64668;BME280;51077;42.716;23.344;2022-08-19T12:42:15;94917.56;;;42.52;16.55
64668;BME280;51077;42.716;23.344;2022-08-19T12:44:43;94920.31;;;42.60;16.56
64668;BME280;51077;42.716;23.344;2022-08-19T12:47:11;94913.19;;;42.55;16.52
64668;BME280;51077;42.716;23.344;2022-08-19T12:49:37;94910.31;;;42.55;16.38
64668;BME280;51077;42.716;23.344;2022-08-19T12:52:05;94911.59;;;42.66;16.37
64668;BME280;51077;42.716;23.344;2022-08-19T12:54:31;94912.94;;;42.73;16.46
64668;BME280;51077;42.716;23.344;2022-08-19T12:56:57;94910.41;;;42.47;16.82
64668;BME280;51077;42.716;23.344;2022-08-19T12:59:24;94909.59;;;42.54;16.55
64668;BME280;51077;42.716;23.344;2022-08-19T13:01:50;94904.47;;;42.59;16.61
64668;BME280;51077;42.716;23.344;2022-08-19T13:04:16;94905.25;;;42.53;16.91